Ashkini Spirit — C6WJ9 — position and weather

sailwx.info

Track history (hours):
 
Tides and Currents Weather Stations Pressure Air Temp Water Temp Dewpoint Dewpoint Depression Visibility Wind Speed Wind Dir Waves Ship Positions

Ashkini Spirit

Last reported at 2017-Nov-12 11:50 UTC. Time now 2017-Nov-18 03:05 UTC.
Position N 22°30' E 113°50'.

Length 273 m; draft 8.7 m.

Type: Tanker. MMSI: 308932000.

Date/timePositionNaut miles runAvg speedWind from/ knotsBaromVisibWave heightAir tempDewpointWater temp
2017-Nov-12 11:50N 22°30' E 113°50'0 0.2
2017-Nov-12 11:30N 22°30' E 113°50'0 0.7
2017-Nov-12 11:00N 22°31' E 113°50'1 1.9
2017-Nov-12 10:30N 22°30' E 113°51'0 0.0
2017-Nov-12 09:57N 22°30' E 113°51'0 0.0
2017-Nov-12 09:27N 22°30' E 113°51'0 0.0
2017-Nov-12 09:00N 22°30' E 113°51'0 0.0
2017-Nov-12 08:30N 22°30' E 113°51'0 0.0
2017-Nov-12 08:00N 22°30' E 113°51'0 0.0
2017-Nov-12 07:30N 22°30' E 113°51'0 0.0
2017-Nov-12 07:00N 22°30' E 113°51'0 0.0
2017-Nov-12 06:28N 22°30' E 113°51'0 0.0
2017-Nov-12 06:00N 22°30' E 113°51'0 0.0
2017-Nov-12 05:30N 22°30' E 113°51'0 0.0
2017-Nov-12 05:00N 22°30' E 113°51'0 0.0
2017-Nov-12 04:30N 22°30' E 113°51'0 0.0
2017-Nov-12 04:00N 22°30' E 113°51'0 0.0
2017-Nov-12 03:30N 22°30' E 113°51'0 0.0
2017-Nov-12 02:57N 22°30' E 113°51'0 0.0
2017-Nov-12 02:27N 22°30' E 113°51'0 0.0
2017-Nov-12 02:00N 22°30' E 113°51'0 0.0
2017-Nov-12 01:30N 22°30' E 113°51'0 0.0
2017-Nov-12 01:01N 22°30' E 113°51'0 0.3
2017-Nov-12 00:31N 22°30' E 113°51'2 4.9
2017-Nov-12 00:00N 22°28' E 113°52'4 8.7
2017-Nov-11 23:30N 22°24' E 113°51'5 9.9
2017-Nov-11 23:00N 22°19' E 113°48'4 7.1
2017-Nov-11 22:31N 22°16' E 113°49'1 1.5
2017-Nov-11 21:58N 22°16' E 113°50'0 0.1
2017-Nov-11 21:28N 22°16' E 113°50'0 0.3
2017-Nov-11 20:58N 22°16' E 113°50'0 0.2
2017-Nov-11 20:28N 22°16' E 113°50'0 0.0
2017-Nov-11 19:58N 22°16' E 113°50'0 0.1
2017-Nov-11 19:28N 22°16' E 113°50'0 0.0
2017-Nov-11 18:58N 22°16' E 113°50'0 0.1
2017-Nov-11 18:28N 22°16' E 113°50'0 0.2
2017-Nov-11 17:58N 22°16' E 113°50'0 0.0
2017-Nov-11 17:28N 22°16' E 113°50'0 0.1
2017-Nov-11 16:58N 22°16' E 113°50'0 0.1
2017-Nov-11 16:18N 22°16' E 113°50'0 0.0
2017-Nov-11 15:58N 22°16' E 113°50'0 0.1
2017-Nov-11 15:28N 22°16' E 113°50'0 0.2
2017-Nov-11 14:58N 22°16' E 113°50'0 0.2
2017-Nov-11 14:22N 22°16' E 113°50'0 0.1
2017-Nov-11 13:58N 22°16' E 113°50'0 0.0
2017-Nov-11 13:28N 22°16' E 113°50'0 0.0
2017-Nov-11 12:58N 22°16' E 113°50'0 0.0
2017-Nov-11 12:28N 22°16' E 113°50'0 0.3
2017-Nov-11 11:52N 22°16' E 113°50'0 0.2
2017-Nov-11 11:28N 22°16' E 113°50'0 0.1
2017-Nov-11 10:58N 22°16' E 113°50'0 0.0
2017-Nov-11 10:28N 22°16' E 113°50'0 0.0
2017-Nov-11 09:58N 22°16' E 113°50'0 0.0
2017-Nov-11 09:28N 22°16' E 113°50'0 0.0
2017-Nov-11 08:52N 22°16' E 113°50'0 0.1
2017-Nov-11 08:22N 22°16' E 113°50'0 0.0
2017-Nov-11 07:58N 22°16' E 113°50'0 0.0
2017-Nov-11 07:28N 22°16' E 113°50'0 0.0
2017-Nov-11 06:58N 22°16' E 113°50'0 0.0
2017-Nov-11 06:28N 22°16' E 113°50'0 0.0
2017-Nov-11 05:58N 22°16' E 113°50'0 0.0
2017-Nov-11 05:28N 22°16' E 113°50'0 0.0
2017-Nov-11 04:58N 22°16' E 113°50'0 0.1
2017-Nov-11 04:28N 22°16' E 113°50'0 0.4
2017-Nov-11 03:58N 22°16' E 113°50'0 0.2
2017-Nov-11 03:28N 22°16' E 113°50'0 0.0
2017-Nov-11 02:58N 22°16' E 113°50'0 0.0
2017-Nov-11 02:28N 22°16' E 113°50'0 0.0
2017-Nov-11 01:58N 22°16' E 113°50'0 0.0
2017-Nov-11 01:28N 22°16' E 113°50'0 0.0
2017-Nov-11 00:58N 22°16' E 113°50'0 0.0
2017-Nov-11 00:28N 22°16' E 113°50'0 0.0
2017-Nov-10 23:58N 22°16' E 113°50'0 0.0
2017-Nov-10 23:28N 22°16' E 113°50'0 0.0
2017-Nov-10 22:58N 22°16' E 113°50'0 0.0
2017-Nov-10 22:28N 22°16' E 113°50'0 0.1
2017-Nov-10 21:58N 22°16' E 113°50'0 0.1
2017-Nov-10 21:28N 22°16' E 113°50'0 0.1
2017-Nov-10 20:58N 22°16' E 113°50'0 0.0
2017-Nov-10 20:28N 22°16' E 113°50'0 0.1
2017-Nov-10 19:58N 22°16' E 113°50'0 0.0
2017-Nov-10 19:28N 22°16' E 113°50'0 0.1
2017-Nov-10 18:58N 22°16' E 113°50'0 0.3
2017-Nov-10 18:28N 22°16' E 113°50'0 0.3
2017-Nov-10 17:58N 22°16' E 113°50'0 0.1
2017-Nov-10 17:29N 22°16' E 113°50'0 0.0
2017-Nov-10 16:54N 22°16' E 113°50'0 0.0
2017-Nov-10 16:22N 22°16' E 113°50'0 0.0
2017-Nov-10 15:58N 22°16' E 113°50'0 0.0
2017-Nov-10 15:28N 22°16' E 113°50'0 0.1
2017-Nov-10 14:58N 22°16' E 113°50'0 0.3
2017-Nov-10 14:28N 22°16' E 113°50'0 0.2
2017-Nov-10 13:58N 22°16' E 113°50'0 0.0
2017-Nov-10 13:28N 22°16' E 113°50'0 0.0
2017-Nov-10 12:52N 22°16' E 113°50'0 0.0
2017-Nov-10 12:28N 22°16' E 113°50'0 0.0
2017-Nov-10 11:58N 22°16' E 113°50'0 0.2
2017-Nov-10 11:28N 22°16' E 113°50'0 0.3
2017-Nov-10 10:46N 22°16' E 113°50'0 0.0
2017-Nov-10 10:22N 22°16' E 113°50'0 0.1
2017-Nov-10 09:58N 22°16' E 113°50'0 0.0
2017-Nov-10 09:28N 22°16' E 113°50'0 0.0
2017-Nov-10 08:58N 22°16' E 113°50'0 0.0
2017-Nov-10 08:22N 22°16' E 113°50'0 0.0
2017-Nov-10 07:58N 22°16' E 113°50'0 0.0
2017-Nov-10 07:28N 22°16' E 113°50'0 0.0
2017-Nov-10 06:58N 22°16' E 113°50'0 0.0
2017-Nov-10 06:28N 22°16' E 113°50'0 0.0
2017-Nov-10 05:58N 22°16' E 113°50'0 0.0
2017-Nov-10 05:28N 22°16' E 113°50'0 0.0
2017-Nov-10 04:50N 22°16' E 113°50'0 0.0
2017-Nov-10 04:28N 22°16' E 113°50'0 0.1
2017-Nov-10 03:58N 22°16' E 113°50'0 0.1
2017-Nov-10 03:28N 22°16' E 113°50'0 0.2
2017-Nov-10 02:58N 22°16' E 113°50'0 0.1
2017-Nov-10 02:22N 22°16' E 113°50'0 0.0
2017-Nov-10 01:52N 22°16' E 113°50'0 0.0
2017-Nov-10 01:28N 22°16' E 113°50'0 0.1
2017-Nov-10 00:58N 22°16' E 113°50'0 0.1
2017-Nov-10 00:28N 22°16' E 113°50'0 0.1
2017-Nov-09 23:58N 22°16' E 113°50'0 0.0
2017-Nov-09 23:28N 22°16' E 113°50'0 0.1
2017-Nov-09 22:58N 22°16' E 113°50'0 0.1
2017-Nov-09 22:28N 22°16' E 113°50'0 0.1
2017-Nov-09 21:59N 22°16' E 113°50'0 0.0
2017-Nov-09 21:29N 22°16' E 113°50'0 0.0
2017-Nov-09 20:58N 22°16' E 113°50'0 0.1
2017-Nov-09 20:28N 22°16' E 113°50'0 0.1
2017-Nov-09 19:58N 22°16' E 113°50'0 0.0
2017-Nov-09 19:28N 22°16' E 113°50'0 0.3
2017-Nov-09 18:58N 22°16' E 113°50'0 0.3
2017-Nov-09 18:28N 22°16' E 113°50'0 0.0
2017-Nov-09 17:58N 22°16' E 113°50'0 0.1
2017-Nov-09 17:28N 22°16' E 113°50'0 0.1
2017-Nov-09 16:58N 22°16' E 113°50'0 0.0
2017-Nov-09 16:28N 22°16' E 113°50'0 0.0
2017-Nov-09 15:58N 22°16' E 113°50'0 0.1
2017-Nov-09 15:22N 22°16' E 113°50'0 0.0
2017-Nov-09 14:58N 22°16' E 113°50'0 0.0
2017-Nov-09 14:26N 22°16' E 113°50'0 0.0
2017-Nov-09 13:58N 22°16' E 113°50'0 0.0
2017-Nov-09 13:28N 22°16' E 113°50'0 0.3
2017-Nov-09 12:58N 22°16' E 113°50'0 0.4
2017-Nov-09 12:28N 22°16' E 113°50'0 0.1
2017-Nov-09 11:58N 22°16' E 113°50'0 0.0
2017-Nov-09 11:28N 22°16' E 113°50'0 0.0
2017-Nov-09 10:58N 22°16' E 113°50'0 0.0
2017-Nov-09 10:29N 22°16' E 113°50'0 0.0
2017-Nov-09 09:58N 22°16' E 113°50'0 0.0
2017-Nov-09 09:28N 22°16' E 113°50'0 0.2
2017-Nov-09 08:58N 22°16' E 113°50'0 0.2
2017-Nov-09 08:22N 22°16' E 113°50'0 0.1
2017-Nov-09 07:59N 22°16' E 113°50'0 0.1
2017-Nov-09 07:28N 22°16' E 113°50'0 0.0
2017-Nov-09 06:58N 22°16' E 113°50'0 0.0
2017-Nov-09 06:28N 22°16' E 113°50'0 0.0
2017-Nov-09 05:58N 22°16' E 113°50'0 0.1
2017-Nov-09 05:28N 22°16' E 113°50'0 0.0
2017-Nov-09 04:58N 22°16' E 113°50'0 0.0
2017-Nov-09 04:28N 22°16' E 113°50'0 0.1
2017-Nov-09 03:58N 22°16' E 113°50'0 0.2
2017-Nov-09 03:28N 22°16' E 113°50'0 0.6
2017-Nov-09 03:00N 22°16' E 113°50'1 2.1
2017-Nov-09 02:30N 22°15' E 113°49'3 5.7
2017-Nov-09 02:00N 22°12' E 113°50'4 8.7
2017-Nov-09 01:29N 22°08' E 113°51'3 6.0
2017-Nov-09 01:00N 22°05' E 113°51'4 6.9
2017-Nov-09 00:30N 22°05' E 113°55'4 7.0
2017-Nov-08 23:58N 22°07' E 113°59'3 7.2
2017-Nov-08 23:30N 22°08' E 114°02'16 8.3
2017-Nov-08 21:38N 22°08' E 114°19'1 6.5
2017-Nov-08 21:30N 22°08' E 114°20'4 7.3
2017-Nov-08 21:00N 22°07' E 114°24'3 6.2
2017-Nov-08 20:30N 22°05' E 114°26'4 7.4
2017-Nov-08 20:00N 22°03' E 114°30'3 6.4
2017-Nov-08 19:28N 22°02' E 114°33'4 6.5
2017-Nov-08 18:53N 22°02' E 114°37'3 6.8
2017-Nov-08 18:23N 22°02' E 114°41'3 6.6
2017-Nov-08 17:59N 22°01' E 114°44'4 6.7
2017-Nov-08 17:26N 22°00' E 114°48'5 6.1
2017-Nov-08 16:38N 21°58' E 114°52'1 5.4
2017-Nov-08 16:30N 21°58' E 114°53'4 6.6
2017-Nov-08 15:53N 22°01' E 114°56'  
Track history (hours):
 
Tides and Currents Weather Stations Pressure Air Temp Water Temp Dewpoint Dewpoint Depression Visibility Wind Speed Wind Dir Waves Ship Positions

Ashkini Spirit

Last reported at 2017-Nov-12 11:50 UTC. Time now 2017-Nov-18 03:05 UTC.
Position N 22°30' E 113°50'.

Length 273 m; draft 8.7 m.

Type: Tanker. MMSI: 308932000.

Date/timePositionNaut miles runAvg speedWind from/ knotsBaromVisibWave heightAir tempDewpointWater temp
2017-Nov-12 11:50N 22°30' E 113°50'0 0.2
2017-Nov-12 11:30N 22°30' E 113°50'0 0.7
2017-Nov-12 11:00N 22°31' E 113°50'1 1.9
2017-Nov-12 10:30N 22°30' E 113°51'0 0.0
2017-Nov-12 09:57N 22°30' E 113°51'0 0.0
2017-Nov-12 09:27N 22°30' E 113°51'0 0.0
2017-Nov-12 09:00N 22°30' E 113°51'0 0.0
2017-Nov-12 08:30N 22°30' E 113°51'0 0.0
2017-Nov-12 08:00N 22°30' E 113°51'0 0.0
2017-Nov-12 07:30N 22°30' E 113°51'0 0.0
2017-Nov-12 07:00N 22°30' E 113°51'0 0.0
2017-Nov-12 06:28N 22°30' E 113°51'0 0.0
2017-Nov-12 06:00N 22°30' E 113°51'0 0.0
2017-Nov-12 05:30N 22°30' E 113°51'0 0.0
2017-Nov-12 05:00N 22°30' E 113°51'0 0.0
2017-Nov-12 04:30N 22°30' E 113°51'0 0.0
2017-Nov-12 04:00N 22°30' E 113°51'0 0.0
2017-Nov-12 03:30N 22°30' E 113°51'0 0.0
2017-Nov-12 02:57N 22°30' E 113°51'0 0.0
2017-Nov-12 02:27N 22°30' E 113°51'0 0.0
2017-Nov-12 02:00N 22°30' E 113°51'0 0.0
2017-Nov-12 01:30N 22°30' E 113°51'0 0.0
2017-Nov-12 01:01N 22°30' E 113°51'0 0.3
2017-Nov-12 00:31N 22°30' E 113°51'2 4.9
2017-Nov-12 00:00N 22°28' E 113°52'4 8.7
2017-Nov-11 23:30N 22°24' E 113°51'5 9.9
2017-Nov-11 23:00N 22°19' E 113°48'4 7.1
2017-Nov-11 22:31N 22°16' E 113°49'1 1.5
2017-Nov-11 21:58N 22°16' E 113°50'0 0.1
2017-Nov-11 21:28N 22°16' E 113°50'0 0.3
2017-Nov-11 20:58N 22°16' E 113°50'0 0.2
2017-Nov-11 20:28N 22°16' E 113°50'0 0.0
2017-Nov-11 19:58N 22°16' E 113°50'0 0.1
2017-Nov-11 19:28N 22°16' E 113°50'0 0.0
2017-Nov-11 18:58N 22°16' E 113°50'0 0.1
2017-Nov-11 18:28N 22°16' E 113°50'0 0.2
2017-Nov-11 17:58N 22°16' E 113°50'0 0.0
2017-Nov-11 17:28N 22°16' E 113°50'0 0.1
2017-Nov-11 16:58N 22°16' E 113°50'0 0.1
2017-Nov-11 16:18N 22°16' E 113°50'0 0.0
2017-Nov-11 15:58N 22°16' E 113°50'0 0.1
2017-Nov-11 15:28N 22°16' E 113°50'0 0.2
2017-Nov-11 14:58N 22°16' E 113°50'0 0.2
2017-Nov-11 14:22N 22°16' E 113°50'0 0.1
2017-Nov-11 13:58N 22°16' E 113°50'0 0.0
2017-Nov-11 13:28N 22°16' E 113°50'0 0.0
2017-Nov-11 12:58N 22°16' E 113°50'0 0.0
2017-Nov-11 12:28N 22°16' E 113°50'0 0.3
2017-Nov-11 11:52N 22°16' E 113°50'0 0.2
2017-Nov-11 11:28N 22°16' E 113°50'0 0.1
2017-Nov-11 10:58N 22°16' E 113°50'0 0.0
2017-Nov-11 10:28N 22°16' E 113°50'0 0.0
2017-Nov-11 09:58N 22°16' E 113°50'0 0.0
2017-Nov-11 09:28N 22°16' E 113°50'0 0.0
2017-Nov-11 08:52N 22°16' E 113°50'0 0.1
2017-Nov-11 08:22N 22°16' E 113°50'0 0.0
2017-Nov-11 07:58N 22°16' E 113°50'0 0.0
2017-Nov-11 07:28N 22°16' E 113°50'0 0.0
2017-Nov-11 06:58N 22°16' E 113°50'0 0.0
2017-Nov-11 06:28N 22°16' E 113°50'0 0.0
2017-Nov-11 05:58N 22°16' E 113°50'0 0.0
2017-Nov-11 05:28N 22°16' E 113°50'0 0.0
2017-Nov-11 04:58N 22°16' E 113°50'0 0.1
2017-Nov-11 04:28N 22°16' E 113°50'0 0.4
2017-Nov-11 03:58N 22°16' E 113°50'0 0.2
2017-Nov-11 03:28N 22°16' E 113°50'0 0.0
2017-Nov-11 02:58N 22°16' E 113°50'0 0.0
2017-Nov-11 02:28N 22°16' E 113°50'0 0.0
2017-Nov-11 01:58N 22°16' E 113°50'0 0.0
2017-Nov-11 01:28N 22°16' E 113°50'0 0.0
2017-Nov-11 00:58N 22°16' E 113°50'0 0.0
2017-Nov-11 00:28N 22°16' E 113°50'0 0.0
2017-Nov-10 23:58N 22°16' E 113°50'0 0.0
2017-Nov-10 23:28N 22°16' E 113°50'0 0.0
2017-Nov-10 22:58N 22°16' E 113°50'0 0.0
2017-Nov-10 22:28N 22°16' E 113°50'0 0.1
2017-Nov-10 21:58N 22°16' E 113°50'0 0.1
2017-Nov-10 21:28N 22°16' E 113°50'0 0.1
2017-Nov-10 20:58N 22°16' E 113°50'0 0.0
2017-Nov-10 20:28N 22°16' E 113°50'0 0.1
2017-Nov-10 19:58N 22°16' E 113°50'0 0.0
2017-Nov-10 19:28N 22°16' E 113°50'0 0.1
2017-Nov-10 18:58N 22°16' E 113°50'0 0.3
2017-Nov-10 18:28N 22°16' E 113°50'0 0.3
2017-Nov-10 17:58N 22°16' E 113°50'0 0.1
2017-Nov-10 17:29N 22°16' E 113°50'0 0.0
2017-Nov-10 16:54N 22°16' E 113°50'0 0.0
2017-Nov-10 16:22N 22°16' E 113°50'0 0.0
2017-Nov-10 15:58N 22°16' E 113°50'0 0.0
2017-Nov-10 15:28N 22°16' E 113°50'0 0.1
2017-Nov-10 14:58N 22°16' E 113°50'0 0.3
2017-Nov-10 14:28N 22°16' E 113°50'0 0.2
2017-Nov-10 13:58N 22°16' E 113°50'0 0.0
2017-Nov-10 13:28N 22°16' E 113°50'0 0.0
2017-Nov-10 12:52N 22°16' E 113°50'0 0.0
2017-Nov-10 12:28N 22°16' E 113°50'0 0.0
2017-Nov-10 11:58N 22°16' E 113°50'0 0.2
2017-Nov-10 11:28N 22°16' E 113°50'0 0.3
2017-Nov-10 10:46N 22°16' E 113°50'0 0.0
2017-Nov-10 10:22N 22°16' E 113°50'0 0.1
2017-Nov-10 09:58N 22°16' E 113°50'0 0.0
2017-Nov-10 09:28N 22°16' E 113°50'0 0.0
2017-Nov-10 08:58N 22°16' E 113°50'0 0.0
2017-Nov-10 08:22N 22°16' E 113°50'0 0.0
2017-Nov-10 07:58N 22°16' E 113°50'0 0.0
2017-Nov-10 07:28N 22°16' E 113°50'0 0.0
2017-Nov-10 06:58N 22°16' E 113°50'0 0.0
2017-Nov-10 06:28N 22°16' E 113°50'0 0.0
2017-Nov-10 05:58N 22°16' E 113°50'0 0.0
2017-Nov-10 05:28N 22°16' E 113°50'0 0.0
2017-Nov-10 04:50N 22°16' E 113°50'0 0.0
2017-Nov-10 04:28N 22°16' E 113°50'0 0.1
2017-Nov-10 03:58N 22°16' E 113°50'0 0.1
2017-Nov-10 03:28N 22°16' E 113°50'0 0.2
2017-Nov-10 02:58N 22°16' E 113°50'0 0.1
2017-Nov-10 02:22N 22°16' E 113°50'0 0.0
2017-Nov-10 01:52N 22°16' E 113°50'0 0.0
2017-Nov-10 01:28N 22°16' E 113°50'0 0.1
2017-Nov-10 00:58N 22°16' E 113°50'0 0.1
2017-Nov-10 00:28N 22°16' E 113°50'0 0.1
2017-Nov-09 23:58N 22°16' E 113°50'0 0.0
2017-Nov-09 23:28N 22°16' E 113°50'0 0.1
2017-Nov-09 22:58N 22°16' E 113°50'0 0.1
2017-Nov-09 22:28N 22°16' E 113°50'0 0.1
2017-Nov-09 21:59N 22°16' E 113°50'0 0.0
2017-Nov-09 21:29N 22°16' E 113°50'0 0.0
2017-Nov-09 20:58N 22°16' E 113°50'0 0.1
2017-Nov-09 20:28N 22°16' E 113°50'0 0.1
2017-Nov-09 19:58N 22°16' E 113°50'0 0.0
2017-Nov-09 19:28N 22°16' E 113°50'0 0.3
2017-Nov-09 18:58N 22°16' E 113°50'0 0.3
2017-Nov-09 18:28N 22°16' E 113°50'0 0.0
2017-Nov-09 17:58N 22°16' E 113°50'0 0.1
2017-Nov-09 17:28N 22°16' E 113°50'0 0.1
2017-Nov-09 16:58N 22°16' E 113°50'0 0.0
2017-Nov-09 16:28N 22°16' E 113°50'0 0.0
2017-Nov-09 15:58N 22°16' E 113°50'0 0.1
2017-Nov-09 15:22N 22°16' E 113°50'0 0.0
2017-Nov-09 14:58N 22°16' E 113°50'0 0.0
2017-Nov-09 14:26N 22°16' E 113°50'0 0.0
2017-Nov-09 13:58N 22°16' E 113°50'0 0.0
2017-Nov-09 13:28N 22°16' E 113°50'0 0.3
2017-Nov-09 12:58N 22°16' E 113°50'0 0.4
2017-Nov-09 12:28N 22°16' E 113°50'0 0.1
2017-Nov-09 11:58N 22°16' E 113°50'0 0.0
2017-Nov-09 11:28N 22°16' E 113°50'0 0.0
2017-Nov-09 10:58N 22°16' E 113°50'0 0.0
2017-Nov-09 10:29N 22°16' E 113°50'0 0.0
2017-Nov-09 09:58N 22°16' E 113°50'0 0.0
2017-Nov-09 09:28N 22°16' E 113°50'0 0.2
2017-Nov-09 08:58N 22°16' E 113°50'0 0.2
2017-Nov-09 08:22N 22°16' E 113°50'0 0.1
2017-Nov-09 07:59N 22°16' E 113°50'0 0.1
2017-Nov-09 07:28N 22°16' E 113°50'0 0.0
2017-Nov-09 06:58N 22°16' E 113°50'0 0.0
2017-Nov-09 06:28N 22°16' E 113°50'0 0.0
2017-Nov-09 05:58N 22°16' E 113°50'0 0.1
2017-Nov-09 05:28N 22°16' E 113°50'0 0.0
2017-Nov-09 04:58N 22°16' E 113°50'0 0.0
2017-Nov-09 04:28N 22°16' E 113°50'0 0.1
2017-Nov-09 03:58N 22°16' E 113°50'0 0.2
2017-Nov-09 03:28N 22°16' E 113°50'0 0.6
2017-Nov-09 03:00N 22°16' E 113°50'1 2.1
2017-Nov-09 02:30N 22°15' E 113°49'3 5.7
2017-Nov-09 02:00N 22°12' E 113°50'4 8.7
2017-Nov-09 01:29N 22°08' E 113°51'3 6.0
2017-Nov-09 01:00N 22°05' E 113°51'4 6.9
2017-Nov-09 00:30N 22°05' E 113°55'4 7.0
2017-Nov-08 23:58N 22°07' E 113°59'3 7.2
2017-Nov-08 23:30N 22°08' E 114°02'16 8.3
2017-Nov-08 21:38N 22°08' E 114°19'1 6.5
2017-Nov-08 21:30N 22°08' E 114°20'4 7.3
2017-Nov-08 21:00N 22°07' E 114°24'3 6.2
2017-Nov-08 20:30N 22°05' E 114°26'4 7.4
2017-Nov-08 20:00N 22°03' E 114°30'3 6.4
2017-Nov-08 19:28N 22°02' E 114°33'4 6.5
2017-Nov-08 18:53N 22°02' E 114°37'3 6.8
2017-Nov-08 18:23N 22°02' E 114°41'3 6.6
2017-Nov-08 17:59N 22°01' E 114°44'4 6.7
2017-Nov-08 17:26N 22°00' E 114°48'5 6.1
2017-Nov-08 16:38N 21°58' E 114°52'1 5.4
2017-Nov-08 16:30N 21°58' E 114°53'4 6.6
2017-Nov-08 15:53N 22°01' E 114°56'  

Dump ship's entire track history